createdAt,value
2019-05-15T00:00:18.296Z,5.41
2019-05-15T00:03:24.960Z,5.36
2019-05-15T00:06:31.317Z,5.31
2019-05-15T00:09:41.794Z,5.21
2019-05-15T00:12:48.664Z,5.15
2019-05-15T00:16:05.505Z,5.21
2019-05-15T00:19:13.106Z,5.15
2019-05-15T00:22:20.491Z,5.10
2019-05-15T00:25:28.350Z,5.09
2019-05-15T00:28:35.691Z,5.02
2019-05-15T00:31:52.413Z,5.05
2019-05-15T00:35:09.633Z,4.97
2019-05-15T00:38:18.642Z,4.88
2019-05-15T00:41:27.879Z,4.86
2019-05-15T00:44:35.160Z,4.79
2019-05-15T00:47:42.761Z,4.78
2019-05-15T00:50:59.489Z,4.81
2019-05-15T00:54:08.277Z,4.71
2019-05-15T00:57:14.937Z,4.66
2019-05-15T01:00:40.020Z,4.64
2019-05-15T01:03:49.344Z,4.60
2019-05-15T01:07:08.158Z,4.60
2019-05-15T01:10:24.267Z,4.50
2019-05-15T01:13:40.915Z,4.50
2019-05-15T01:16:49.033Z,4.42
2019-05-15T01:19:58.712Z,4.34
2019-05-15T01:23:05.337Z,4.35
2019-05-15T01:26:12.815Z,4.30
2019-05-15T01:29:44.798Z,4.29
2019-05-15T01:32:48.651Z,4.23
2019-05-15T01:36:05.346Z,4.22
2019-05-15T01:39:21.928Z,4.19
2019-05-15T01:42:39.019Z,4.09
2019-05-15T01:45:55.744Z,4.07
2019-05-15T01:49:12.290Z,4.04
2019-05-15T01:52:35.048Z,3.96
2019-05-15T01:55:51.724Z,3.96
2019-05-15T01:59:14.344Z,3.91
2019-05-15T02:02:21.634Z,3.83
2019-05-15T02:05:39.102Z,3.84
2019-05-15T02:08:46.714Z,3.78
2019-05-15T02:11:54.117Z,3.73
2019-05-15T02:15:11.046Z,3.75
2019-05-15T02:18:19.227Z,3.66
2019-05-15T02:21:28.806Z,3.67
2019-05-15T02:24:36.118Z,3.62
2019-05-15T02:27:55.563Z,3.60
2019-05-15T02:31:13.429Z,3.58
2019-05-15T02:34:19.598Z,3.58
2019-05-15T02:37:29.412Z,3.48
2019-05-15T02:40:36.249Z,3.50
2019-05-15T02:43:43.933Z,3.42
2019-05-15T02:47:00.533Z,3.48
2019-05-15T02:50:20.437Z,3.40
2019-05-15T02:53:29.592Z,3.30
2019-05-15T02:56:54.371Z,3.35
2019-05-15T03:00:11.420Z,3.30
2019-05-15T03:03:20.560Z,3.23
2019-05-15T03:06:29.785Z,3.19
2019-05-15T03:09:39.870Z,3.16
2019-05-15T03:12:49.323Z,3.15
2019-05-15T03:16:11.054Z,3.17
2019-05-15T03:19:19.466Z,3.13
2019-05-15T03:22:42.211Z,3.12
2019-05-15T03:26:04.326Z,3.12
2019-05-15T03:29:11.213Z,3.06
2019-05-15T03:32:32.779Z,3.00
2019-05-15T03:35:32.178Z,2.97
2019-05-15T03:38:44.956Z,3.00
2019-05-15T03:42:01.950Z,3.01
2019-05-15T03:45:19.206Z,3.00
2019-05-15T03:48:28.791Z,2.94
2019-05-15T03:51:39.907Z,2.90
2019-05-15T03:54:44.906Z,2.88
2019-05-15T03:58:01.861Z,2.91
2019-05-15T04:01:36.766Z,2.94
2019-05-15T04:04:42.981Z,2.88
2019-05-15T04:08:00.070Z,2.87
2019-05-15T04:11:09.110Z,2.85
2019-05-15T04:14:19.374Z,2.83
2019-05-15T04:17:29.534Z,2.82
2019-05-15T04:20:35.530Z,2.82
2019-05-15T04:23:42.472Z,2.78
2019-05-15T04:27:10.652Z,2.84
2019-05-15T04:30:19.062Z,2.81
2019-05-15T04:33:28.988Z,2.82
2019-05-15T04:36:33.580Z,2.85
2019-05-15T04:39:50.960Z,2.88
2019-05-15T04:42:59.313Z,2.87
2019-05-15T04:46:19.407Z,2.94
2019-05-15T04:49:34.517Z,3.00
2019-05-15T04:52:43.389Z,3.03
2019-05-15T04:55:51.482Z,3.06
2019-05-15T04:59:00.095Z,3.11
2019-05-15T05:02:24.976Z,3.19
2019-05-15T05:05:34.378Z,3.28
2019-05-15T05:08:50.852Z,3.34
2019-05-15T05:12:19.112Z,3.42
2019-05-15T05:15:34.494Z,3.56
2019-05-15T05:18:51.163Z,3.62
2019-05-15T05:22:10.826Z,3.70
2019-05-15T05:25:18.265Z,3.75
2019-05-15T05:28:34.902Z,3.90
2019-05-15T05:31:54.497Z,4.03
2019-05-15T05:35:20.493Z,4.33
2019-05-15T05:38:28.212Z,4.53
2019-05-15T05:41:35.863Z,4.70
2019-05-15T05:44:43.139Z,4.85
2019-05-15T05:47:50.484Z,4.96
2019-05-15T05:50:58.250Z,5.10
2019-05-15T05:54:14.670Z,5.26
2019-05-15T05:57:31.456Z,5.37
2019-05-15T06:00:51.258Z,5.49
2019-05-15T06:04:18.420Z,5.63
2019-05-15T06:07:24.286Z,5.69
2019-05-15T06:10:31.724Z,5.79
2019-05-15T06:13:39.038Z,5.90
2019-05-15T06:16:48.231Z,6.03
2019-05-15T06:19:55.522Z,6.16
2019-05-15T06:23:01.106Z,6.32
2019-05-15T06:26:19.673Z,6.57
2019-05-15T06:29:37.839Z,6.79
2019-05-15T06:33:09.339Z,7.02
2019-05-15T06:36:20.807Z,7.28
2019-05-15T06:39:39.150Z,7.53
2019-05-15T06:43:01.841Z,7.76
2019-05-15T06:46:18.886Z,8.01
2019-05-15T06:49:28.485Z,8.20
2019-05-15T06:52:37.824Z,8.43
2019-05-15T06:55:44.550Z,8.65
2019-05-15T06:58:52.207Z,8.83
2019-05-15T07:02:18.886Z,9.11
2019-05-15T07:05:38.556Z,9.35
2019-05-15T07:08:45.997Z,9.53
2019-05-15T07:11:53.293Z,9.74
2019-05-15T07:15:00.775Z,10.00
2019-05-15T07:18:19.950Z,10.23
2019-05-15T07:21:38.731Z,10.51
2019-05-15T07:24:47.674Z,10.54
2019-05-15T07:27:54.653Z,10.73
2019-05-15T07:31:02.073Z,10.92
2019-05-15T07:34:09.346Z,11.09
2019-05-15T07:37:19.048Z,11.22
2019-05-15T07:40:28.806Z,11.38
2019-05-15T07:43:35.226Z,11.57
2019-05-15T07:46:42.612Z,11.65
2019-05-15T07:49:50.153Z,11.67
2019-05-15T07:52:59.075Z,11.81
2019-05-15T07:56:18.006Z,12.14
2019-05-15T07:59:23.298Z,12.21
2019-05-15T08:02:40.084Z,12.42
2019-05-15T08:06:05.547Z,12.51
2019-05-15T08:09:11.203Z,12.51
2019-05-15T08:12:28.366Z,12.74
2019-05-15T08:15:37.975Z,12.87
2019-05-15T08:18:45.088Z,13.02
2019-05-15T08:21:52.483Z,13.28
2019-05-15T08:25:00.020Z,13.41
2019-05-15T08:28:25.126Z,13.56
2019-05-15T08:31:31.080Z,13.54
2019-05-15T08:34:48.039Z,13.54
2019-05-15T08:37:55.503Z,13.78
2019-05-15T08:41:02.748Z,14.03
2019-05-15T08:44:10.061Z,14.09
2019-05-15T08:47:19.152Z,14.05
2019-05-15T08:50:28.733Z,14.46
2019-05-15T08:53:53.938Z,14.50
2019-05-15T08:57:01.205Z,14.41
2019-05-15T09:00:20.094Z,14.62
2019-05-15T09:03:38.056Z,14.68
2019-05-15T09:06:45.629Z,14.77
2019-05-15T09:10:09.173Z,15.14
2019-05-15T09:13:15.042Z,15.16
2019-05-15T09:16:22.393Z,15.28
2019-05-15T09:19:29.765Z,15.30
2019-05-15T09:22:48.996Z,15.44
2019-05-15T09:26:05.236Z,15.42
2019-05-15T09:29:11.446Z,15.40
2019-05-15T09:32:19.297Z,15.51
2019-05-15T09:35:25.180Z,15.64
2019-05-15T09:38:44.685Z,15.81
2019-05-15T09:42:04.021Z,15.91
2019-05-15T09:45:11.545Z,16.04
2019-05-15T09:48:19.920Z,16.20
2019-05-15T09:51:39.172Z,16.20
2019-05-15T09:54:56.104Z,16.58
2019-05-15T09:58:14.140Z,16.58
2019-05-15T10:01:21.482Z,16.55
2019-05-15T10:04:49.593Z,16.46
2019-05-15T10:07:56.483Z,16.41
2019-05-15T10:11:03.915Z,16.28
2019-05-15T10:14:11.371Z,16.40
2019-05-15T10:17:18.973Z,16.45
2019-05-15T10:20:28.960Z,16.22
2019-05-15T10:23:49.395Z,16.36
2019-05-15T10:27:05.316Z,16.31
2019-05-15T10:30:29.299Z,16.18
2019-05-15T10:33:46.205Z,15.98
2019-05-15T10:37:05.291Z,15.88
2019-05-15T10:40:22.183Z,15.69
2019-05-15T10:43:28.855Z,15.58
2019-05-15T10:46:38.247Z,15.56
2019-05-15T10:49:45.333Z,15.60
2019-05-15T10:52:52.618Z,15.56
2019-05-15T10:56:09.276Z,15.65
2019-05-15T10:59:18.113Z,15.71
2019-05-15T11:02:24.924Z,15.71
2019-05-15T11:05:43.886Z,15.68
2019-05-15T11:08:40.993Z,15.73
2019-05-15T11:11:51.465Z,15.70
2019-05-15T11:15:11.361Z,15.76
2019-05-15T11:18:30.838Z,15.83
2019-05-15T11:21:48.572Z,15.76
2019-05-15T11:25:05.009Z,15.80
2019-05-15T11:28:24.444Z,15.77
2019-05-15T11:31:41.197Z,15.72
2019-05-15T11:34:58.310Z,15.75
2019-05-15T11:38:09.657Z,15.69
2019-05-15T11:41:18.419Z,15.65
2019-05-15T11:44:22.924Z,15.69
2019-05-15T11:47:40.304Z,15.78
2019-05-15T11:50:46.925Z,15.74
2019-05-15T11:54:03.343Z,15.77
2019-05-15T11:57:40.990Z,15.65
2019-05-15T12:00:49.135Z,15.63
2019-05-15T12:03:54.184Z,15.58
2019-05-15T12:07:10.833Z,15.59
2019-05-15T12:10:28.912Z,15.54
2019-05-15T12:13:38.144Z,15.51
2019-05-15T12:17:09.615Z,15.59
2019-05-15T12:20:13.265Z,15.57
2019-05-15T12:23:29.889Z,15.55
2019-05-15T12:26:48.880Z,15.55
2019-05-15T12:30:05.525Z,15.52
2019-05-15T12:33:11.304Z,15.51
2019-05-15T12:36:46.068Z,15.49
2019-05-15T12:39:30.390Z,15.51
2019-05-15T13:02:13.461Z,16.02
2019-05-15T13:05:20.836Z,16.07
2019-05-15T13:08:29.063Z,16.10
2019-05-15T13:11:37.809Z,16.15
2019-05-15T13:14:45.192Z,16.20
2019-05-15T13:17:53.753Z,16.23
2019-05-15T13:21:01.420Z,16.27
2019-05-15T13:24:08.703Z,16.41
2019-05-15T13:27:18.221Z,16.38
2019-05-15T13:30:25.806Z,16.38
2019-05-15T13:33:33.201Z,16.36
2019-05-15T13:36:40.492Z,16.39
2019-05-15T13:39:48.522Z,16.49
2019-05-15T13:42:56.020Z,16.53
2019-05-15T13:46:03.488Z,16.49
2019-05-15T13:49:10.850Z,16.44
2019-05-15T13:52:18.790Z,16.41
2019-05-15T13:55:42.441Z,16.53
2019-05-15T13:58:58.540Z,16.54
2019-05-15T14:02:14.617Z,16.57
2019-05-15T14:05:38.430Z,16.56
2019-05-15T14:08:48.537Z,16.56
2019-05-15T14:12:12.475Z,16.60
2019-05-15T14:15:27.768Z,16.55
2019-05-15T14:18:44.422Z,16.58
2019-05-15T14:22:01.115Z,16.61
2019-05-15T14:25:18.200Z,16.64
2019-05-15T14:28:28.186Z,16.62
2019-05-15T14:31:36.550Z,16.58
2019-05-15T14:34:43.913Z,16.55
2019-05-15T14:38:02.575Z,16.53
2019-05-15T14:41:00.420Z,16.48
2019-05-15T14:44:17.447Z,16.48
2019-05-15T14:47:16.039Z,16.50
2019-05-15T14:50:23.470Z,16.50
2019-05-15T14:53:41.754Z,16.61
2019-05-15T14:56:48.695Z,16.61
2019-05-15T14:59:58.019Z,16.61
2019-05-15T15:03:14.733Z,16.64
2019-05-15T15:06:31.273Z,16.59
2019-05-15T15:09:38.648Z,16.52
2019-05-15T15:13:04.275Z,16.58
2019-05-15T15:16:21.523Z,16.58
2019-05-15T15:19:40.398Z,16.62
2019-05-15T15:22:59.822Z,16.61
2019-05-15T15:26:08.231Z,16.57
2019-05-15T15:29:15.675Z,16.53
2019-05-15T15:32:22.850Z,16.53
2019-05-15T15:35:30.357Z,16.52
2019-05-15T15:38:48.401Z,16.52
2019-05-15T15:41:57.846Z,16.44
2019-05-15T15:45:14.571Z,16.43
2019-05-15T15:48:21.470Z,16.38
2019-05-15T15:51:28.631Z,16.30
2019-05-15T15:54:45.754Z,16.29
2019-05-15T15:58:02.495Z,16.22
2019-05-15T16:01:25.697Z,16.13
2019-05-15T16:04:40.413Z,16.06
2019-05-15T16:08:00.164Z,15.95
2019-05-15T16:11:19.361Z,15.90
2019-05-15T16:14:38.696Z,15.82
2019-05-15T16:18:03.804Z,15.74
2019-05-15T16:21:22.022Z,15.69
2019-05-15T16:24:29.437Z,15.56
2019-05-15T16:27:54.635Z,15.51
2019-05-15T16:31:18.636Z,15.45
2019-05-15T16:34:28.369Z,15.32
2019-05-15T16:37:44.701Z,15.28
2019-05-15T16:41:09.175Z,15.20
2019-05-15T16:44:16.346Z,15.05
2019-05-15T16:47:23.796Z,14.98
2019-05-15T16:50:42.890Z,14.90
2019-05-15T16:53:50.151Z,14.77
2019-05-15T16:57:15.211Z,14.68
2019-05-15T17:00:23.018Z,14.60
2019-05-15T17:03:30.540Z,14.56
2019-05-15T17:06:38.736Z,14.55
2019-05-15T17:10:03.912Z,14.49
2019-05-15T17:13:23.025Z,14.43
2019-05-15T17:16:42.713Z,14.31
2019-05-15T17:20:01.990Z,14.26
2019-05-15T17:23:18.883Z,14.27
2019-05-15T17:26:28.768Z,14.15
2019-05-15T17:29:49.070Z,14.11
2019-05-15T17:32:56.567Z,14.02
2019-05-15T17:36:04.440Z,13.97
2019-05-15T17:39:12.236Z,13.86
2019-05-15T17:42:19.436Z,13.80
2019-05-15T17:45:28.303Z,13.76
2019-05-15T17:48:35.864Z,13.72
2019-05-15T17:51:43.225Z,13.61
2019-05-15T17:55:08.627Z,13.57
2019-05-15T17:58:28.818Z,13.53
2019-05-15T18:01:38.110Z,13.47
2019-05-15T18:04:44.338Z,13.36
2019-05-15T18:07:51.799Z,13.11
2019-05-15T18:10:59.428Z,13.05
2019-05-15T18:14:08.866Z,12.96
2019-05-15T18:17:26.824Z,12.75
2019-05-15T18:20:45.539Z,12.64
2019-05-15T18:24:11.176Z,12.62
2019-05-15T18:27:18.697Z,12.43
2019-05-15T18:30:38.973Z,12.32
2019-05-15T18:33:53.962Z,12.14
2019-05-15T18:36:57.749Z,12.06
2019-05-15T18:40:18.949Z,12.05
2019-05-15T18:43:37.739Z,11.90
2019-05-15T18:46:45.256Z,11.75
2019-05-15T18:50:04.284Z,11.68
2019-05-15T18:53:01.589Z,11.60
2019-05-15T18:56:09.173Z,11.58
2019-05-15T18:59:17.712Z,11.48
2019-05-15T19:02:25.382Z,11.40
2019-05-15T19:05:44.629Z,11.39
2019-05-15T19:09:05.277Z,11.36
2019-05-15T19:12:12.732Z,11.28
2019-05-15T19:15:20.072Z,11.24
2019-05-15T19:18:44.928Z,11.26
2019-05-15T19:21:52.461Z,11.23
2019-05-15T19:25:17.957Z,11.20
2019-05-15T19:28:25.378Z,11.13
2019-05-15T19:31:32.747Z,11.05
2019-05-15T19:34:40.255Z,11.02
2019-05-15T19:37:48.895Z,10.96
2019-05-15T19:41:02.311Z,10.93
2019-05-15T19:44:05.479Z,10.88
2019-05-15T19:47:30.842Z,10.88
2019-05-15T19:50:37.705Z,10.83
2019-05-15T19:53:44.971Z,10.80
2019-05-15T19:57:04.426Z,10.84
2019-05-15T20:00:54.769Z,10.81
2019-05-15T20:04:03.904Z,10.71
2019-05-15T20:07:50.002Z,10.78
2019-05-15T20:11:27.760Z,10.70
2019-05-15T20:22:43.046Z,10.60
2019-05-15T20:25:58.136Z,10.55
2019-05-15T20:29:18.072Z,10.51
2019-05-15T20:32:41.024Z,10.50
2019-05-15T20:36:17.862Z,10.46
2019-05-15T20:39:20.926Z,10.43
2019-05-15T20:42:48.417Z,10.46
2019-05-15T20:46:08.424Z,10.43
2019-05-15T20:49:17.891Z,10.35
2019-05-15T20:52:23.798Z,10.34
2019-05-15T20:55:31.168Z,10.37
2019-05-15T20:58:38.548Z,10.34
2019-05-15T21:01:48.301Z,10.31
2019-05-15T21:04:55.025Z,10.27
2019-05-15T21:08:02.492Z,10.25
2019-05-15T21:11:11.722Z,10.19
2019-05-15T21:14:39.823Z,10.18
2019-05-15T21:17:45.981Z,10.12
2019-05-15T21:20:58.884Z,10.09
2019-05-15T21:24:12.941Z,10.06
2019-05-15T21:27:33.480Z,10.04
2019-05-15T21:30:48.864Z,10.01
2019-05-15T21:33:59.666Z,10.01
2019-05-15T21:37:18.780Z,9.98
2019-05-15T21:40:50.968Z,9.95
2019-05-15T21:44:08.699Z,9.95
2019-05-15T21:47:14.627Z,9.92
2019-05-15T21:50:34.772Z,9.96
2019-05-15T21:53:42.167Z,9.87
2019-05-15T21:56:50.471Z,9.87
2019-05-15T21:59:57.821Z,9.92
2019-05-15T22:03:05.918Z,9.85
2019-05-15T22:06:25.102Z,9.90
2019-05-15T22:09:50.213Z,9.86
2019-05-15T22:13:15.632Z,9.89
2019-05-15T22:16:34.838Z,9.90
2019-05-15T22:19:54.512Z,9.85
2019-05-15T22:23:13.791Z,9.84
2019-05-15T22:26:21.771Z,9.78
2019-05-15T22:29:28.862Z,9.80
2019-05-15T22:32:41.196Z,9.78
2019-05-15T22:35:45.570Z,9.79
2019-05-15T22:38:52.981Z,9.81
2019-05-15T22:42:51.671Z,9.82
2019-05-15T22:46:12.286Z,9.79
2019-05-15T22:49:31.306Z,9.83
2019-05-15T22:52:50.472Z,9.82
2019-05-15T22:56:09.966Z,9.79
2019-05-15T22:59:34.505Z,9.77
2019-05-15T23:02:40.781Z,9.84
2019-05-15T23:05:47.629Z,9.70
2019-05-15T23:08:55.125Z,9.71
2019-05-15T23:12:02.462Z,9.79
2019-05-15T23:15:09.884Z,9.66
2019-05-15T23:18:17.928Z,9.56
2019-05-15T23:21:25.496Z,9.52
2019-05-15T23:24:33.029Z,9.49
2019-05-15T23:27:40.430Z,9.45
2019-05-15T23:30:48.538Z,9.44
2019-05-15T23:33:55.991Z,9.41
2019-05-15T23:37:03.296Z,9.44
2019-05-15T23:40:11.130Z,9.40
2019-05-15T23:43:18.933Z,9.38
2019-05-15T23:46:25.216Z,9.46
2019-05-15T23:49:32.486Z,9.40
2019-05-15T23:52:39.733Z,9.45
2019-05-15T23:55:47.187Z,9.45
2019-05-15T23:58:54.533Z,9.41
